sensor_id;sensor_type;location;lat;lon;timestamp;P1;durP1;ratioP1;P2;durP2;ratioP2
22250;SDS011;59348;52.158;5.588;2023-04-25T00:00:32;22.02;;;4.63;;
22250;SDS011;59348;52.158;5.588;2023-04-25T00:02:59;15.63;;;4.28;;
22250;SDS011;59348;52.158;5.588;2023-04-25T00:05:26;20.80;;;4.53;;
22250;SDS011;59348;52.158;5.588;2023-04-25T00:07:54;15.20;;;4.47;;
22250;SDS011;59348;52.158;5.588;2023-04-25T00:10:22;11.50;;;4.03;;
22250;SDS011;59348;52.158;5.588;2023-04-25T00:12:49;17.75;;;4.50;;
22250;SDS011;59348;52.158;5.588;2023-04-25T00:15:16;14.73;;;4.05;;
22250;SDS011;59348;52.158;5.588;2023-04-25T00:17:45;19.60;;;4.60;;
22250;SDS011;59348;52.158;5.588;2023-04-25T00:20:12;14.30;;;3.90;;
22250;SDS011;59348;52.158;5.588;2023-04-25T00:22:40;14.65;;;4.13;;
22250;SDS011;59348;52.158;5.588;2023-04-25T00:25:08;27.25;;;5.03;;
22250;SDS011;59348;52.158;5.588;2023-04-25T00:27:35;27.60;;;5.30;;
22250;SDS011;59348;52.158;5.588;2023-04-25T00:30:04;22.27;;;4.35;;
22250;SDS011;59348;52.158;5.588;2023-04-25T00:32:31;18.65;;;4.35;;
22250;SDS011;59348;52.158;5.588;2023-04-25T00:35:00;14.95;;;3.60;;
22250;SDS011;59348;52.158;5.588;2023-04-25T00:37:27;21.13;;;4.43;;
22250;SDS011;59348;52.158;5.588;2023-04-25T00:39:57;24.48;;;4.80;;
22250;SDS011;59348;52.158;5.588;2023-04-25T00:42:24;17.98;;;4.30;;
22250;SDS011;59348;52.158;5.588;2023-04-25T00:44:52;26.63;;;5.00;;
22250;SDS011;59348;52.158;5.588;2023-04-25T00:47:19;20.95;;;4.50;;
22250;SDS011;59348;52.158;5.588;2023-04-25T00:49:46;19.38;;;4.95;;
22250;SDS011;59348;52.158;5.588;2023-04-25T00:52:15;20.15;;;4.90;;
22250;SDS011;59348;52.158;5.588;2023-04-25T00:54:42;18.20;;;4.70;;
22250;SDS011;59348;52.158;5.588;2023-04-25T00:57:10;15.73;;;4.75;;
22250;SDS011;59348;52.158;5.588;2023-04-25T00:59:37;19.30;;;4.70;;
22250;SDS011;59348;52.158;5.588;2023-04-25T01:02:04;21.70;;;4.97;;
22250;SDS011;59348;52.158;5.588;2023-04-25T01:04:32;20.95;;;5.20;;
22250;SDS011;59348;52.158;5.588;2023-04-25T01:06:59;21.60;;;5.13;;
22250;SDS011;59348;52.158;5.588;2023-04-25T01:09:29;19.13;;;5.10;;
22250;SDS011;59348;52.158;5.588;2023-04-25T01:11:57;15.27;;;4.85;;
22250;SDS011;59348;52.158;5.588;2023-04-25T01:14:25;19.60;;;5.00;;
22250;SDS011;59348;52.158;5.588;2023-04-25T01:16:52;22.58;;;5.10;;
22250;SDS011;59348;52.158;5.588;2023-04-25T01:19:19;22.40;;;5.63;;
22250;SDS011;59348;52.158;5.588;2023-04-25T01:21:48;15.07;;;4.85;;
22250;SDS011;59348;52.158;5.588;2023-04-25T01:24:15;19.13;;;4.75;;
22250;SDS011;59348;52.158;5.588;2023-04-25T01:26:43;18.92;;;5.40;;
22250;SDS011;59348;52.158;5.588;2023-04-25T01:29:14;23.52;;;5.47;;
22250;SDS011;59348;52.158;5.588;2023-04-25T01:31:41;26.80;;;5.70;;
22250;SDS011;59348;52.158;5.588;2023-04-25T01:34:09;19.20;;;5.22;;
22250;SDS011;59348;52.158;5.588;2023-04-25T01:36:37;20.55;;;5.28;;
22250;SDS011;59348;52.158;5.588;2023-04-25T01:39:05;17.88;;;5.15;;
22250;SDS011;59348;52.158;5.588;2023-04-25T01:41:33;24.05;;;5.00;;
22250;SDS011;59348;52.158;5.588;2023-04-25T01:44:01;15.35;;;4.97;;
22250;SDS011;59348;52.158;5.588;2023-04-25T01:46:28;17.33;;;4.68;;
22250;SDS011;59348;52.158;5.588;2023-04-25T01:48:55;20.00;;;4.32;;
22250;SDS011;59348;52.158;5.588;2023-04-25T01:51:23;25.42;;;5.10;;
22250;SDS011;59348;52.158;5.588;2023-04-25T01:53:50;22.58;;;5.03;;
22250;SDS011;59348;52.158;5.588;2023-04-25T01:56:19;20.48;;;4.75;;
22250;SDS011;59348;52.158;5.588;2023-04-25T01:58:46;19.55;;;4.85;;
22250;SDS011;59348;52.158;5.588;2023-04-25T02:01:13;20.83;;;4.43;;
22250;SDS011;59348;52.158;5.588;2023-04-25T02:03:41;17.67;;;4.07;;
22250;SDS011;59348;52.158;5.588;2023-04-25T02:06:08;20.67;;;4.53;;
22250;SDS011;59348;52.158;5.588;2023-04-25T02:08:35;14.40;;;3.88;;
22250;SDS011;59348;52.158;5.588;2023-04-25T02:11:02;21.63;;;4.22;;
22250;SDS011;59348;52.158;5.588;2023-04-25T02:13:31;18.88;;;4.15;;
22250;SDS011;59348;52.158;5.588;2023-04-25T02:15:58;14.30;;;3.90;;
22250;SDS011;59348;52.158;5.588;2023-04-25T02:18:26;14.13;;;3.80;;
22250;SDS011;59348;52.158;5.588;2023-04-25T02:20:53;10.70;;;3.40;;
22250;SDS011;59348;52.158;5.588;2023-04-25T02:23:20;12.98;;;4.15;;
22250;SDS011;59348;52.158;5.588;2023-04-25T02:25:48;12.73;;;3.97;;
22250;SDS011;59348;52.158;5.588;2023-04-25T02:28:15;12.02;;;3.50;;
22250;SDS011;59348;52.158;5.588;2023-04-25T02:30:44;14.35;;;3.80;;
22250;SDS011;59348;52.158;5.588;2023-04-25T02:33:11;20.67;;;4.50;;
22250;SDS011;59348;52.158;5.588;2023-04-25T02:35:38;16.17;;;4.53;;
22250;SDS011;59348;52.158;5.588;2023-04-25T02:38:06;17.27;;;4.40;;
22250;SDS011;59348;52.158;5.588;2023-04-25T02:40:33;18.83;;;4.60;;
22250;SDS011;59348;52.158;5.588;2023-04-25T02:43:00;13.68;;;4.32;;
22250;SDS011;59348;52.158;5.588;2023-04-25T02:45:27;16.45;;;4.32;;
22250;SDS011;59348;52.158;5.588;2023-04-25T02:47:56;18.00;;;4.43;;
22250;SDS011;59348;52.158;5.588;2023-04-25T02:50:23;18.13;;;4.70;;
22250;SDS011;59348;52.158;5.588;2023-04-25T02:52:50;21.83;;;5.03;;
22250;SDS011;59348;52.158;5.588;2023-04-25T02:55:18;17.02;;;4.60;;
22250;SDS011;59348;52.158;5.588;2023-04-25T02:57:45;18.80;;;4.63;;
22250;SDS011;59348;52.158;5.588;2023-04-25T03:00:13;18.40;;;4.57;;
22250;SDS011;59348;52.158;5.588;2023-04-25T03:02:40;13.20;;;4.40;;
22250;SDS011;59348;52.158;5.588;2023-04-25T03:05:09;22.02;;;4.90;;
22250;SDS011;59348;52.158;5.588;2023-04-25T03:07:36;17.42;;;4.43;;
22250;SDS011;59348;52.158;5.588;2023-04-25T03:10:05;17.35;;;4.50;;
22250;SDS011;59348;52.158;5.588;2023-04-25T03:12:32;11.98;;;4.40;;
22250;SDS011;59348;52.158;5.588;2023-04-25T03:14:59;13.27;;;4.00;;
22250;SDS011;59348;52.158;5.588;2023-04-25T03:17:27;19.65;;;4.93;;
22250;SDS011;59348;52.158;5.588;2023-04-25T03:19:54;16.15;;;4.72;;
22250;SDS011;59348;52.158;5.588;2023-04-25T03:22:23;14.32;;;4.43;;
22250;SDS011;59348;52.158;5.588;2023-04-25T03:24:50;18.45;;;4.63;;
22250;SDS011;59348;52.158;5.588;2023-04-25T03:27:17;18.83;;;4.20;;
22250;SDS011;59348;52.158;5.588;2023-04-25T03:29:45;18.55;;;4.15;;
22250;SDS011;59348;52.158;5.588;2023-04-25T03:32:12;14.32;;;4.78;;
22250;SDS011;59348;52.158;5.588;2023-04-25T03:34:39;18.20;;;4.70;;
22250;SDS011;59348;52.158;5.588;2023-04-25T03:37:07;12.40;;;4.13;;
22250;SDS011;59348;52.158;5.588;2023-04-25T03:39:35;20.52;;;4.30;;
22250;SDS011;59348;52.158;5.588;2023-04-25T03:42:03;18.83;;;4.60;;
22250;SDS011;59348;52.158;5.588;2023-04-25T03:44:30;16.60;;;4.55;;
22250;SDS011;59348;52.158;5.588;2023-04-25T03:46:58;17.30;;;4.75;;
22250;SDS011;59348;52.158;5.588;2023-04-25T03:49:25;21.38;;;4.47;;
22250;SDS011;59348;52.158;5.588;2023-04-25T03:51:52;14.77;;;4.45;;
22250;SDS011;59348;52.158;5.588;2023-04-25T03:54:19;18.33;;;4.18;;
22250;SDS011;59348;52.158;5.588;2023-04-25T03:56:48;16.05;;;4.00;;
22250;SDS011;59348;52.158;5.588;2023-04-25T03:59:15;16.13;;;4.38;;
22250;SDS011;59348;52.158;5.588;2023-04-25T04:01:43;16.40;;;4.13;;
22250;SDS011;59348;52.158;5.588;2023-04-25T04:04:10;19.90;;;4.45;;
22250;SDS011;59348;52.158;5.588;2023-04-25T04:06:37;13.52;;;3.97;;
22250;SDS011;59348;52.158;5.588;2023-04-25T04:09:05;19.33;;;4.63;;
22250;SDS011;59348;52.158;5.588;2023-04-25T04:11:35;16.73;;;4.43;;
22250;SDS011;59348;52.158;5.588;2023-04-25T04:14:04;18.60;;;4.65;;
22250;SDS011;59348;52.158;5.588;2023-04-25T04:16:32;15.68;;;4.40;;
22250;SDS011;59348;52.158;5.588;2023-04-25T04:18:59;16.40;;;4.05;;
22250;SDS011;59348;52.158;5.588;2023-04-25T04:21:26;18.92;;;4.40;;
22250;SDS011;59348;52.158;5.588;2023-04-25T04:23:54;22.13;;;4.20;;
22250;SDS011;59348;52.158;5.588;2023-04-25T04:26:22;16.83;;;3.95;;
22250;SDS011;59348;52.158;5.588;2023-04-25T04:28:51;17.50;;;3.95;;
22250;SDS011;59348;52.158;5.588;2023-04-25T04:31:20;13.48;;;3.80;;
22250;SDS011;59348;52.158;5.588;2023-04-25T04:33:47;16.05;;;3.55;;
22250;SDS011;59348;52.158;5.588;2023-04-25T04:36:15;16.33;;;4.00;;
22250;SDS011;59348;52.158;5.588;2023-04-25T04:38:45;20.42;;;3.85;;
22250;SDS011;59348;52.158;5.588;2023-04-25T04:41:12;17.50;;;3.97;;
22250;SDS011;59348;52.158;5.588;2023-04-25T04:43:39;15.13;;;3.95;;
22250;SDS011;59348;52.158;5.588;2023-04-25T04:46:08;16.98;;;3.75;;
22250;SDS011;59348;52.158;5.588;2023-04-25T04:48:39;11.85;;;3.60;;
22250;SDS011;59348;52.158;5.588;2023-04-25T04:51:06;18.80;;;4.28;;
22250;SDS011;59348;52.158;5.588;2023-04-25T04:53:34;12.30;;;3.10;;
22250;SDS011;59348;52.158;5.588;2023-04-25T04:56:01;14.18;;;3.20;;
22250;SDS011;59348;52.158;5.588;2023-04-25T04:58:28;14.63;;;3.17;;
22250;SDS011;59348;52.158;5.588;2023-04-25T05:00:56;13.77;;;2.92;;
22250;SDS011;59348;52.158;5.588;2023-04-25T05:03:23;13.27;;;3.20;;
22250;SDS011;59348;52.158;5.588;2023-04-25T05:05:51;7.72;;;2.85;;
22250;SDS011;59348;52.158;5.588;2023-04-25T05:08:19;12.82;;;2.90;;
22250;SDS011;59348;52.158;5.588;2023-04-25T05:10:46;8.43;;;2.70;;
22250;SDS011;59348;52.158;5.588;2023-04-25T05:13:13;11.02;;;2.72;;
22250;SDS011;59348;52.158;5.588;2023-04-25T05:15:41;7.30;;;2.35;;
22250;SDS011;59348;52.158;5.588;2023-04-25T05:18:08;10.98;;;2.40;;
22250;SDS011;59348;52.158;5.588;2023-04-25T05:20:35;8.30;;;2.45;;
22250;SDS011;59348;52.158;5.588;2023-04-25T05:23:04;12.82;;;2.42;;
22250;SDS011;59348;52.158;5.588;2023-04-25T05:25:31;7.57;;;2.55;;
22250;SDS011;59348;52.158;5.588;2023-04-25T05:27:58;13.48;;;2.60;;
22250;SDS011;59348;52.158;5.588;2023-04-25T05:30:26;8.98;;;2.20;;
22250;SDS011;59348;52.158;5.588;2023-04-25T05:32:53;7.65;;;2.33;;
22250;SDS011;59348;52.158;5.588;2023-04-25T05:35:20;9.30;;;2.40;;
22250;SDS011;59348;52.158;5.588;2023-04-25T05:37:48;14.13;;;2.50;;
22250;SDS011;59348;52.158;5.588;2023-04-25T05:40:17;8.77;;;2.67;;
22250;SDS011;59348;52.158;5.588;2023-04-25T05:42:44;7.25;;;2.35;;
22250;SDS011;59348;52.158;5.588;2023-04-25T05:45:11;11.43;;;2.50;;
22250;SDS011;59348;52.158;5.588;2023-04-25T05:47:39;15.90;;;3.10;;
22250;SDS011;59348;52.158;5.588;2023-04-25T05:50:06;14.48;;;2.72;;
22250;SDS011;59348;52.158;5.588;2023-04-25T05:52:34;8.15;;;2.28;;
22250;SDS011;59348;52.158;5.588;2023-04-25T05:55:03;7.32;;;2.22;;
22250;SDS011;59348;52.158;5.588;2023-04-25T05:57:32;10.88;;;2.42;;
22250;SDS011;59348;52.158;5.588;2023-04-25T05:59:59;7.20;;;2.22;;
22250;SDS011;59348;52.158;5.588;2023-04-25T06:02:26;9.63;;;2.33;;
22250;SDS011;59348;52.158;5.588;2023-04-25T06:04:54;8.30;;;2.53;;
22250;SDS011;59348;52.158;5.588;2023-04-25T06:07:21;10.98;;;2.22;;
22250;SDS011;59348;52.158;5.588;2023-04-25T06:09:48;6.75;;;2.35;;
22250;SDS011;59348;52.158;5.588;2023-04-25T06:12:16;10.18;;;2.53;;
22250;SDS011;59348;52.158;5.588;2023-04-25T06:14:44;10.65;;;2.50;;
22250;SDS011;59348;52.158;5.588;2023-04-25T06:17:12;9.77;;;2.78;;
22250;SDS011;59348;52.158;5.588;2023-04-25T06:19:39;11.73;;;2.50;;
22250;SDS011;59348;52.158;5.588;2023-04-25T06:22:07;8.98;;;2.47;;
22250;SDS011;59348;52.158;5.588;2023-04-25T06:24:34;11.65;;;2.88;;
22250;SDS011;59348;52.158;5.588;2023-04-25T06:27:01;6.50;;;2.40;;
22250;SDS011;59348;52.158;5.588;2023-04-25T06:29:28;7.63;;;2.55;;
22250;SDS011;59348;52.158;5.588;2023-04-25T06:31:57;11.30;;;2.80;;
22250;SDS011;59348;52.158;5.588;2023-04-25T06:34:24;9.50;;;2.60;;
22250;SDS011;59348;52.158;5.588;2023-04-25T06:36:52;12.85;;;2.42;;
22250;SDS011;59348;52.158;5.588;2023-04-25T06:39:19;13.05;;;2.70;;
22250;SDS011;59348;52.158;5.588;2023-04-25T06:41:48;12.52;;;2.60;;
22250;SDS011;59348;52.158;5.588;2023-04-25T06:44:15;9.07;;;2.40;;
22250;SDS011;59348;52.158;5.588;2023-04-25T06:46:42;12.63;;;2.58;;
22250;SDS011;59348;52.158;5.588;2023-04-25T06:49:11;10.43;;;2.33;;
22250;SDS011;59348;52.158;5.588;2023-04-25T06:51:38;9.73;;;2.10;;
22250;SDS011;59348;52.158;5.588;2023-04-25T06:54:06;13.77;;;2.17;;
22250;SDS011;59348;52.158;5.588;2023-04-25T06:56:33;11.18;;;1.77;;
22250;SDS011;59348;52.158;5.588;2023-04-25T06:59:00;15.30;;;1.85;;
22250;SDS011;59348;52.158;5.588;2023-04-25T07:01:28;13.52;;;2.00;;
22250;SDS011;59348;52.158;5.588;2023-04-25T07:03:55;11.35;;;1.77;;
22250;SDS011;59348;52.158;5.588;2023-04-25T07:06:24;10.20;;;1.80;;
22250;SDS011;59348;52.158;5.588;2023-04-25T07:08:52;10.10;;;2.00;;
22250;SDS011;59348;52.158;5.588;2023-04-25T07:11:20;12.10;;;2.10;;
22250;SDS011;59348;52.158;5.588;2023-04-25T07:13:48;9.10;;;2.05;;
22250;SDS011;59348;52.158;5.588;2023-04-25T07:16:15;7.75;;;2.10;;
22250;SDS011;59348;52.158;5.588;2023-04-25T07:18:43;9.27;;;2.20;;
22250;SDS011;59348;52.158;5.588;2023-04-25T07:21:10;11.00;;;2.30;;
22250;SDS011;59348;52.158;5.588;2023-04-25T07:23:39;13.77;;;2.33;;
22250;SDS011;59348;52.158;5.588;2023-04-25T07:26:06;12.77;;;1.98;;
22250;SDS011;59348;52.158;5.588;2023-04-25T07:28:33;12.70;;;2.03;;
22250;SDS011;59348;52.158;5.588;2023-04-25T07:31:01;14.35;;;2.22;;
22250;SDS011;59348;52.158;5.588;2023-04-25T07:33:28;7.57;;;1.88;;
22250;SDS011;59348;52.158;5.588;2023-04-25T07:35:56;10.40;;;1.88;;
22250;SDS011;59348;52.158;5.588;2023-04-25T07:38:23;10.23;;;2.05;;
22250;SDS011;59348;52.158;5.588;2023-04-25T07:40:52;10.32;;;1.75;;
22250;SDS011;59348;52.158;5.588;2023-04-25T07:43:20;10.88;;;2.05;;
22250;SDS011;59348;52.158;5.588;2023-04-25T07:45:47;10.75;;;2.00;;
22250;SDS011;59348;52.158;5.588;2023-04-25T07:48:16;9.40;;;1.65;;
22250;SDS011;59348;52.158;5.588;2023-04-25T07:50:44;9.85;;;1.92;;
22250;SDS011;59348;52.158;5.588;2023-04-25T07:53:11;13.07;;;1.85;;
22250;SDS011;59348;52.158;5.588;2023-04-25T07:55:39;9.25;;;2.03;;
22250;SDS011;59348;52.158;5.588;2023-04-25T07:58:08;9.52;;;1.70;;
22250;SDS011;59348;52.158;5.588;2023-04-25T08:00:35;10.95;;;1.75;;
22250;SDS011;59348;52.158;5.588;2023-04-25T08:03:03;8.75;;;1.77;;
22250;SDS011;59348;52.158;5.588;2023-04-25T08:05:31;8.43;;;1.77;;
22250;SDS011;59348;52.158;5.588;2023-04-25T08:07:58;7.38;;;1.75;;
22250;SDS011;59348;52.158;5.588;2023-04-25T08:10:27;7.68;;;1.75;;
22250;SDS011;59348;52.158;5.588;2023-04-25T08:12:54;9.32;;;1.35;;
22250;SDS011;59348;52.158;5.588;2023-04-25T08:15:23;8.23;;;1.40;;
22250;SDS011;59348;52.158;5.588;2023-04-25T08:17:50;9.05;;;1.75;;
22250;SDS011;59348;52.158;5.588;2023-04-25T08:20:17;7.43;;;1.80;;
22250;SDS011;59348;52.158;5.588;2023-04-25T08:22:45;13.50;;;1.83;;
22250;SDS011;59348;52.158;5.588;2023-04-25T08:25:13;10.85;;;2.05;;
22250;SDS011;59348;52.158;5.588;2023-04-25T08:27:41;13.98;;;2.17;;
22250;SDS011;59348;52.158;5.588;2023-04-25T08:30:08;8.32;;;1.50;;
22250;SDS011;59348;52.158;5.588;2023-04-25T08:32:37;6.97;;;1.50;;
22250;SDS011;59348;52.158;5.588;2023-04-25T08:35:04;11.07;;;1.88;;
22250;SDS011;59348;52.158;5.588;2023-04-25T08:37:32;9.57;;;1.48;;
22250;SDS011;59348;52.158;5.588;2023-04-25T08:40:00;8.25;;;1.60;;
22250;SDS011;59348;52.158;5.588;2023-04-25T08:42:32;8.32;;;1.50;;
22250;SDS011;59348;52.158;5.588;2023-04-25T08:45:01;7.97;;;1.35;;
22250;SDS011;59348;52.158;5.588;2023-04-25T08:47:29;6.30;;;1.52;;
22250;SDS011;59348;52.158;5.588;2023-04-25T08:49:58;6.72;;;1.48;;
22250;SDS011;59348;52.158;5.588;2023-04-25T08:52:27;8.65;;;1.80;;
22250;SDS011;59348;52.158;5.588;2023-04-25T08:54:55;8.05;;;1.40;;
22250;SDS011;59348;52.158;5.588;2023-04-25T08:57:23;6.38;;;1.52;;
22250;SDS011;59348;52.158;5.588;2023-04-25T08:59:51;8.48;;;1.55;;
22250;SDS011;59348;52.158;5.588;2023-04-25T09:02:18;9.48;;;1.60;;
22250;SDS011;59348;52.158;5.588;2023-04-25T09:04:46;10.20;;;1.50;;
22250;SDS011;59348;52.158;5.588;2023-04-25T09:07:14;8.80;;;1.40;;
22250;SDS011;59348;52.158;5.588;2023-04-25T09:09:46;4.28;;;1.00;;
22250;SDS011;59348;52.158;5.588;2023-04-25T09:12:13;8.45;;;1.50;;
22250;SDS011;59348;52.158;5.588;2023-04-25T09:14:40;5.60;;;1.40;;
22250;SDS011;59348;52.158;5.588;2023-04-25T09:17:08;5.65;;;1.40;;
22250;SDS011;59348;52.158;5.588;2023-04-25T09:19:36;10.25;;;1.60;;
22250;SDS011;59348;52.158;5.588;2023-04-25T09:22:05;10.15;;;1.60;;
22250;SDS011;59348;52.158;5.588;2023-04-25T09:24:35;5.47;;;1.30;;
22250;SDS011;59348;52.158;5.588;2023-04-25T09:27:04;6.55;;;1.60;;
22250;SDS011;59348;52.158;5.588;2023-04-25T09:29:31;6.75;;;1.50;;
22250;SDS011;59348;52.158;5.588;2023-04-25T09:34:41;3.85;;;1.20;;
22250;SDS011;59348;52.158;5.588;2023-04-25T09:37:09;5.68;;;1.45;;
22250;SDS011;59348;52.158;5.588;2023-04-25T09:39:38;6.30;;;1.60;;
22250;SDS011;59348;52.158;5.588;2023-04-25T09:42:05;8.88;;;1.65;;
22250;SDS011;59348;52.158;5.588;2023-04-25T09:44:33;6.35;;;1.20;;
22250;SDS011;59348;52.158;5.588;2023-04-25T09:47:00;6.10;;;1.35;;
22250;SDS011;59348;52.158;5.588;2023-04-25T09:49:28;6.05;;;1.42;;
22250;SDS011;59348;52.158;5.588;2023-04-25T09:51:55;10.20;;;1.75;;
22250;SDS011;59348;52.158;5.588;2023-04-25T09:54:23;6.50;;;1.50;;
22250;SDS011;59348;52.158;5.588;2023-04-25T09:56:52;5.10;;;1.10;;
22250;SDS011;59348;52.158;5.588;2023-04-25T09:59:20;4.50;;;1.40;;
22250;SDS011;59348;52.158;5.588;2023-04-25T10:01:48;7.95;;;1.10;;
22250;SDS011;59348;52.158;5.588;2023-04-25T10:04:18;6.00;;;1.05;;
22250;SDS011;59348;52.158;5.588;2023-04-25T10:06:48;4.78;;;1.17;;
22250;SDS011;59348;52.158;5.588;2023-04-25T10:09:18;5.10;;;1.58;;
22250;SDS011;59348;52.158;5.588;2023-04-25T10:11:48;6.15;;;1.35;;
22250;SDS011;59348;52.158;5.588;2023-04-25T10:14:17;6.18;;;1.33;;
22250;SDS011;59348;52.158;5.588;2023-04-25T10:16:45;6.85;;;1.52;;
22250;SDS011;59348;52.158;5.588;2023-04-25T10:19:14;7.25;;;1.10;;
22250;SDS011;59348;52.158;5.588;2023-04-25T10:21:44;7.88;;;1.45;;
22250;SDS011;59348;52.158;5.588;2023-04-25T10:24:13;6.95;;;1.45;;
22250;SDS011;59348;52.158;5.588;2023-04-25T10:26:40;6.65;;;1.20;;
22250;SDS011;59348;52.158;5.588;2023-04-25T10:29:08;8.98;;;1.50;;
22250;SDS011;59348;52.158;5.588;2023-04-25T10:31:44;8.60;;;1.30;;
22250;SDS011;59348;52.158;5.588;2023-04-25T10:34:11;11.57;;;1.52;;
22250;SDS011;59348;52.158;5.588;2023-04-25T10:36:39;9.15;;;1.42;;
22250;SDS011;59348;52.158;5.588;2023-04-25T10:39:06;6.70;;;1.27;;
22250;SDS011;59348;52.158;5.588;2023-04-25T10:41:45;7.60;;;1.50;;
22250;SDS011;59348;52.158;5.588;2023-04-25T10:44:14;8.10;;;1.60;;
22250;SDS011;59348;52.158;5.588;2023-04-25T10:46:43;10.15;;;1.30;;
22250;SDS011;59348;52.158;5.588;2023-04-25T10:49:15;4.10;;;1.25;;
22250;SDS011;59348;52.158;5.588;2023-04-25T10:54:39;6.03;;;1.20;;
22250;SDS011;59348;52.158;5.588;2023-04-25T10:57:07;6.05;;;1.27;;
22250;SDS011;59348;52.158;5.588;2023-04-25T10:59:34;6.60;;;1.35;;
22250;SDS011;59348;52.158;5.588;2023-04-25T11:02:09;6.00;;;1.35;;
22250;SDS011;59348;52.158;5.588;2023-04-25T11:04:38;4.90;;;1.50;;
22250;SDS011;59348;52.158;5.588;2023-04-25T11:07:09;3.63;;;0.90;;
22250;SDS011;59348;52.158;5.588;2023-04-25T11:09:38;5.10;;;1.40;;
22250;SDS011;59348;52.158;5.588;2023-04-25T11:12:07;5.20;;;1.27;;
22250;SDS011;59348;52.158;5.588;2023-04-25T11:14:35;5.13;;;1.25;;
22250;SDS011;59348;52.158;5.588;2023-04-25T11:17:03;4.50;;;1.10;;
22250;SDS011;59348;52.158;5.588;2023-04-25T11:19:31;4.75;;;1.50;;
22250;SDS011;59348;52.158;5.588;2023-04-25T11:21:59;4.93;;;1.10;;
22250;SDS011;59348;52.158;5.588;2023-04-25T11:24:27;7.05;;;1.55;;
22250;SDS011;59348;52.158;5.588;2023-04-25T11:26:54;5.70;;;1.35;;
22250;SDS011;59348;52.158;5.588;2023-04-25T11:29:22;6.75;;;1.42;;
22250;SDS011;59348;52.158;5.588;2023-04-25T11:31:50;7.35;;;1.50;;
22250;SDS011;59348;52.158;5.588;2023-04-25T11:34:19;4.43;;;1.25;;
22250;SDS011;59348;52.158;5.588;2023-04-25T11:36:47;5.43;;;1.27;;
22250;SDS011;59348;52.158;5.588;2023-04-25T11:39:14;6.43;;;1.33;;
22250;SDS011;59348;52.158;5.588;2023-04-25T11:41:41;6.25;;;1.30;;
22250;SDS011;59348;52.158;5.588;2023-04-25T11:44:09;5.03;;;1.30;;
22250;SDS011;59348;52.158;5.588;2023-04-25T11:46:36;6.80;;;1.80;;
22250;SDS011;59348;52.158;5.588;2023-04-25T11:49:03;8.90;;;1.63;;
22250;SDS011;59348;52.158;5.588;2023-04-25T11:51:38;5.78;;;1.67;;
22250;SDS011;59348;52.158;5.588;2023-04-25T11:54:06;12.80;;;1.73;;
22250;SDS011;59348;52.158;5.588;2023-04-25T11:56:33;5.70;;;1.35;;
22250;SDS011;59348;52.158;5.588;2023-04-25T11:59:01;5.57;;;1.40;;
22250;SDS011;59348;52.158;5.588;2023-04-25T12:01:29;5.85;;;1.50;;
22250;SDS011;59348;52.158;5.588;2023-04-25T12:03:57;5.70;;;1.38;;
22250;SDS011;59348;52.158;5.588;2023-04-25T12:06:26;8.63;;;1.50;;
22250;SDS011;59348;52.158;5.588;2023-04-25T12:09:03;6.60;;;1.60;;
22250;SDS011;59348;52.158;5.588;2023-04-25T12:11:30;6.57;;;1.45;;
22250;SDS011;59348;52.158;5.588;2023-04-25T12:14:02;8.23;;;1.33;;
22250;SDS011;59348;52.158;5.588;2023-04-25T12:16:39;6.85;;;1.20;;
22250;SDS011;59348;52.158;5.588;2023-04-25T12:19:07;4.22;;;1.17;;
22250;SDS011;59348;52.158;5.588;2023-04-25T12:21:35;6.88;;;1.65;;
22250;SDS011;59348;52.158;5.588;2023-04-25T12:24:11;7.68;;;1.55;;
22250;SDS011;59348;52.158;5.588;2023-04-25T12:26:47;10.82;;;1.65;;
22250;SDS011;59348;52.158;5.588;2023-04-25T12:29:15;4.47;;;1.20;;
22250;SDS011;59348;52.158;5.588;2023-04-25T12:31:43;4.72;;;1.17;;
22250;SDS011;59348;52.158;5.588;2023-04-25T12:34:11;3.97;;;1.00;;
22250;SDS011;59348;52.158;5.588;2023-04-25T12:36:38;1.70;;;0.80;;
22250;SDS011;59348;52.158;5.588;2023-04-25T12:39:06;7.00;;;1.13;;
22250;SDS011;59348;52.158;5.588;2023-04-25T12:41:34;7.55;;;1.05;;
22250;SDS011;59348;52.158;5.588;2023-04-25T12:44:02;6.07;;;1.25;;
22250;SDS011;59348;52.158;5.588;2023-04-25T12:46:30;5.05;;;1.10;;
22250;SDS011;59348;52.158;5.588;2023-04-25T12:48:57;6.45;;;1.58;;
22250;SDS011;59348;52.158;5.588;2023-04-25T12:51:25;8.32;;;1.38;;
22250;SDS011;59348;52.158;5.588;2023-04-25T12:53:53;4.55;;;1.10;;
22250;SDS011;59348;52.158;5.588;2023-04-25T12:56:20;3.58;;;1.17;;
22250;SDS011;59348;52.158;5.588;2023-04-25T12:58:49;5.43;;;1.30;;
22250;SDS011;59348;52.158;5.588;2023-04-25T13:01:16;4.15;;;1.02;;
22250;SDS011;59348;52.158;5.588;2023-04-25T13:03:44;2.70;;;0.95;;
22250;SDS011;59348;52.158;5.588;2023-04-25T13:06:11;4.82;;;0.77;;
22250;SDS011;59348;52.158;5.588;2023-04-25T13:08:38;3.50;;;1.00;;
22250;SDS011;59348;52.158;5.588;2023-04-25T13:11:06;2.65;;;0.80;;
22250;SDS011;59348;52.158;5.588;2023-04-25T13:13:33;3.17;;;0.90;;
22250;SDS011;59348;52.158;5.588;2023-04-25T13:16:03;4.20;;;0.90;;
22250;SDS011;59348;52.158;5.588;2023-04-25T13:18:30;3.50;;;1.08;;
22250;SDS011;59348;52.158;5.588;2023-04-25T13:20:58;3.63;;;1.00;;
22250;SDS011;59348;52.158;5.588;2023-04-25T13:23:26;4.07;;;1.00;;
22250;SDS011;59348;52.158;5.588;2023-04-25T13:25:53;4.30;;;1.20;;
22250;SDS011;59348;52.158;5.588;2023-04-25T13:28:22;7.22;;;1.35;;
22250;SDS011;59348;52.158;5.588;2023-04-25T13:30:50;5.60;;;1.40;;
22250;SDS011;59348;52.158;5.588;2023-04-25T13:33:19;7.28;;;1.15;;
22250;SDS011;59348;52.158;5.588;2023-04-25T13:35:47;5.85;;;1.30;;
22250;SDS011;59348;52.158;5.588;2023-04-25T13:38:19;4.40;;;1.42;;
22250;SDS011;59348;52.158;5.588;2023-04-25T13:40:46;3.33;;;1.20;;
22250;SDS011;59348;52.158;5.588;2023-04-25T13:43:13;3.95;;;1.30;;
22250;SDS011;59348;52.158;5.588;2023-04-25T13:45:41;5.32;;;1.20;;
22250;SDS011;59348;52.158;5.588;2023-04-25T13:48:08;5.18;;;1.30;;
22250;SDS011;59348;52.158;5.588;2023-04-25T13:50:37;11.60;;;1.67;;
22250;SDS011;59348;52.158;5.588;2023-04-25T13:53:04;7.53;;;1.50;;
22250;SDS011;59348;52.158;5.588;2023-04-25T13:55:32;8.07;;;1.50;;
22250;SDS011;59348;52.158;5.588;2023-04-25T13:58:00;6.68;;;1.30;;
22250;SDS011;59348;52.158;5.588;2023-04-25T14:00:32;6.40;;;1.30;;
22250;SDS011;59348;52.158;5.588;2023-04-25T14:02:59;4.55;;;1.48;;
22250;SDS011;59348;52.158;5.588;2023-04-25T14:05:29;9.27;;;1.50;;
22250;SDS011;59348;52.158;5.588;2023-04-25T14:07:58;3.60;;;1.10;;
22250;SDS011;59348;52.158;5.588;2023-04-25T14:10:25;7.00;;;1.38;;
22250;SDS011;59348;52.158;5.588;2023-04-25T14:12:53;7.07;;;1.60;;
22250;SDS011;59348;52.158;5.588;2023-04-25T14:15:20;4.78;;;1.40;;
22250;SDS011;59348;52.158;5.588;2023-04-25T14:17:47;4.72;;;1.10;;
22250;SDS011;59348;52.158;5.588;2023-04-25T14:20:15;4.85;;;1.13;;
22250;SDS011;59348;52.158;5.588;2023-04-25T14:22:45;5.95;;;1.27;;
22250;SDS011;59348;52.158;5.588;2023-04-25T14:25:14;8.52;;;1.48;;
22250;SDS011;59348;52.158;5.588;2023-04-25T14:27:41;5.15;;;1.42;;
22250;SDS011;59348;52.158;5.588;2023-04-25T14:30:12;7.88;;;1.33;;
22250;SDS011;59348;52.158;5.588;2023-04-25T14:32:40;6.30;;;1.50;;
22250;SDS011;59348;52.158;5.588;2023-04-25T14:35:07;4.68;;;1.55;;
22250;SDS011;59348;52.158;5.588;2023-04-25T14:37:35;5.93;;;1.40;;
22250;SDS011;59348;52.158;5.588;2023-04-25T14:40:02;8.55;;;1.48;;
22250;SDS011;59348;52.158;5.588;2023-04-25T14:42:31;9.32;;;1.60;;
22250;SDS011;59348;52.158;5.588;2023-04-25T14:44:59;7.72;;;1.48;;
22250;SDS011;59348;52.158;5.588;2023-04-25T14:47:26;9.95;;;1.95;;
22250;SDS011;59348;52.158;5.588;2023-04-25T14:49:53;6.65;;;1.65;;